Time;durP1;ratioP1;P1;durP2;ratioP2;P2;SDS_P1;SDS_P2;PMS_P1;PMS_P2;Temp;Humidity;BMP_temperature;BMP_pressure;BME280_temperature;BME280_humidity;BME280_pressure;Samples;Min_cycle;Max_cycle;Signal;HPM_P1;HPM_P2
2022/06/19 07:30:26;;;;;;;15.77;2.50;;;;;;;;;;10499855;27;20277;-74
2022/06/19 07:35:27;;;;;;;20.40;3.42;;;;;;;;;;10516625;27;20201;-75
2022/06/19 07:40:28;;;;;;;18.90;2.80;;;;;;;;;;10484848;28;20550;-75
2022/06/19 07:45:30;;;;;;;12.55;2.45;;;;;;;;;;10483658;28;20194;-72
2022/06/19 07:50:31;;;;;;;14.48;2.80;;;;;;;;;;10490839;28;20754;-74
2022/06/19 07:55:32;;;;;;;16.83;2.60;;;;;;;;;;10489784;28;23968;-74
2022/06/19 08:00:34;;;;;;;14.93;2.70;;;;;;;;;;10483757;27;20274;-74
2022/06/19 08:05:36;;;;;;;12.07;2.55;;;;;;;;;;10485272;28;20201;-74
2022/06/19 08:10:39;;;;;;;16.75;2.75;;;;;;;;;;10493774;28;20915;-73
2022/06/19 08:15:40;;;;;;;15.38;2.85;;;;;;;;;;10487738;28;20202;-73
2022/06/19 08:20:42;;;;;;;16.10;3.38;;;;;;;;;;10491259;28;20213;-73
2022/06/19 08:25:45;;;;;;;10.60;2.72;;;;;;;;;;10483855;28;20339;-74
2022/06/19 08:30:46;;;;;;;11.70;2.90;;;;;;;;;;10478485;28;20697;-74
2022/06/19 08:35:49;;;;;;;15.75;3.80;;;;;;;;;;10486973;28;20193;-73
2022/06/19 08:41:15;;;;;;;10.77;4.40;;;;;;;;;;10460929;28;20178;-73
2022/06/19 08:46:25;;;;;;;9.77;4.28;;;;;;;;;;10454275;28;20210;-73
2022/06/19 08:51:45;;;;;;;6.93;4.10;;;;;;;;;;10451502;28;20185;-73
2022/06/19 08:56:56;;;;;;;8.05;4.55;;;;;;;;;;10447749;28;20945;-74
2022/06/19 09:02:12;;;;;;;7.55;3.58;;;;;;;;;;10459983;28;20202;-73
2022/06/19 09:07:20;;;;;;;8.30;3.88;;;;;;;;;;10462079;28;20257;-73
2022/06/19 09:12:21;;;;;;;5.43;4.10;;;;;;;;;;10439270;28;20285;-73
2022/06/19 09:17:28;;;;;;;5.10;3.72;;;;;;;;;;10464133;28;20194;-74
2022/06/19 09:22:29;;;;;;;8.18;4.13;;;;;;;;;;10460050;28;20735;-74
2022/06/19 09:27:33;;;;;;;8.95;4.40;;;;;;;;;;10462465;28;20237;-76
2022/06/19 09:32:38;;;;;;;12.20;4.05;;;;;;;;;;10458400;28;20302;-75
2022/06/19 09:37:51;;;;;;;11.27;3.95;;;;;;;;;;10454043;28;21455;-74
2022/06/19 09:42:57;;;;;;;7.50;3.70;;;;;;;;;;10474519;28;20219;-74
2022/06/19 09:48:02;;;;;;;7.95;3.03;;;;;;;;;;10457694;28;20230;-74
2022/06/19 09:53:09;;;;;;;6.65;3.10;;;;;;;;;;10444410;28;20240;-74
2022/06/19 09:58:19;;;;;;;11.95;3.28;;;;;;;;;;10439020;28;20206;-75
2022/06/19 10:03:24;;;;;;;12.25;3.83;;;;;;;;;;10443390;28;20236;-77
2022/06/19 10:08:27;;;;;;;5.18;2.95;;;;;;;;;;10448515;28;20218;-75
2022/06/19 10:13:40;;;;;;;10.70;3.17;;;;;;;;;;10453558;28;20243;-76
2022/06/19 10:18:44;;;;;;;9.95;3.58;;;;;;;;;;10446565;28;22837;-74
2022/06/19 10:23:59;;;;;;;4.50;2.83;;;;;;;;;;10440341;28;20190;-74
2022/06/19 10:29:12;;;;;;;13.95;3.45;;;;;;;;;;10454000;28;20309;-75
2022/06/19 10:34:32;;;;;;;7.15;2.72;;;;;;;;;;10448660;28;20206;-76
2022/06/19 10:40:03;;;;;;;7.80;2.70;;;;;;;;;;10445747;28;20202;-73
2022/06/19 10:45:24;;;;;;;7.55;3.22;;;;;;;;;;10404457;28;20204;-76
2022/06/19 10:50:43;;;;;;;10.15;2.53;;;;;;;;;;10445880;28;20210;-75
2022/06/19 10:55:50;;;;;;;3.03;2.80;;;;;;;;;;10441947;28;20316;-76
2022/06/19 11:00:54;;;;;;;9.65;3.20;;;;;;;;;;10450302;28;20209;-76
2022/06/19 11:05:59;;;;;;;9.30;3.13;;;;;;;;;;10447778;28;20229;-76
2022/06/19 11:11:00;;;;;;;6.50;3.00;;;;;;;;;;10453595;28;20239;-75
2022/06/19 11:16:05;;;;;;;8.40;2.38;;;;;;;;;;10445100;28;20214;-75
2022/06/19 11:21:18;;;;;;;6.35;2.63;;;;;;;;;;10446943;28;20180;-77
2022/06/19 11:26:39;;;;;;;6.40;2.53;;;;;;;;;;10444324;28;20313;-75
2022/06/19 11:32:04;;;;;;;9.73;2.95;;;;;;;;;;10453283;28;20850;-76
2022/06/19 11:37:11;;;;;;;4.70;2.70;;;;;;;;;;10449946;28;20214;-75
2022/06/19 11:42:30;;;;;;;11.00;3.03;;;;;;;;;;10444481;28;20182;-74
2022/06/19 11:47:37;;;;;;;11.43;3.00;;;;;;;;;;10442030;28;20205;-73
2022/06/19 11:52:45;;;;;;;5.50;2.65;;;;;;;;;;10437008;28;20682;-74
2022/06/19 11:57:48;;;;;;;6.95;3.13;;;;;;;;;;10440379;28;20287;-73
2022/06/19 12:02:53;;;;;;;5.72;3.10;;;;;;;;;;10437586;28;20214;-74
2022/06/19 12:07:56;;;;;;;6.68;2.88;;;;;;;;;;10438288;28;20297;-74
2022/06/19 12:12:58;;;;;;;7.55;2.53;;;;;;;;;;10438527;28;20189;-74
2022/06/19 12:17:59;;;;;;;8.02;2.80;;;;;;;;;;10453859;28;20199;-73
2022/06/19 12:23:07;;;;;;;11.88;3.05;;;;;;;;;;10462912;28;20206;-75
2022/06/19 12:28:08;;;;;;;18.33;3.08;;;;;;;;;;10463987;28;20237;-73
2022/06/19 12:33:12;;;;;;;10.10;2.72;;;;;;;;;;10467625;28;20209;-72
2022/06/19 12:38:14;;;;;;;10.23;2.85;;;;;;;;;;10466614;28;20213;-73
2022/06/19 12:43:21;;;;;;;5.63;2.65;;;;;;;;;;10467717;28;20213;-74
2022/06/19 12:48:22;;;;;;;8.27;2.83;;;;;;;;;;10451156;28;20302;-73
2022/06/19 12:53:36;;;;;;;10.75;3.55;;;;;;;;;;10436008;28;20183;-74
2022/06/19 12:58:40;;;;;;;7.50;2.97;;;;;;;;;;10440159;28;20221;-75
2022/06/19 13:03:57;;;;;;;8.32;3.10;;;;;;;;;;10445733;28;20216;-73
2022/06/19 13:09:11;;;;;;;10.63;3.30;;;;;;;;;;10457234;28;20210;-73
2022/06/19 13:14:40;;;;;;;8.00;3.10;;;;;;;;;;10442140;28;20188;-72
2022/06/19 13:19:52;;;;;;;9.43;3.20;;;;;;;;;;10455994;28;20267;-73
2022/06/19 13:24:56;;;;;;;8.65;3.53;;;;;;;;;;10471157;28;20202;-74
2022/06/19 13:30:16;;;;;;;7.20;2.95;;;;;;;;;;10466769;28;20220;-74
2022/06/19 13:35:17;;;;;;;3.53;3.00;;;;;;;;;;10458696;28;20248;-74
2022/06/19 13:40:24;;;;;;;11.68;3.67;;;;;;;;;;10460146;28;20198;-74
2022/06/19 13:45:45;;;;;;;8.48;3.28;;;;;;;;;;10453759;28;20229;-75
2022/06/19 13:50:56;;;;;;;7.07;3.22;;;;;;;;;;10440473;28;20189;-73
2022/06/19 13:56:05;;;;;;;7.72;3.33;;;;;;;;;;10452346;28;20216;-73
2022/06/19 14:01:17;;;;;;;6.68;3.40;;;;;;;;;;10459690;28;20210;-74
2022/06/19 14:06:23;;;;;;;8.93;3.85;;;;;;;;;;10457098;28;20310;-74
2022/06/19 14:12:03;;;;;;;8.68;3.65;;;;;;;;;;10450040;28;20189;-73
2022/06/19 14:16:53;;;;;;;6.00;2.97;;;;;;;;;;10453313;28;20585;-74
2022/06/19 14:22:00;;;;;;;6.55;2.92;;;;;;;;;;10460929;28;20239;-73
2022/06/19 14:27:20;;;;;;;9.48;3.55;;;;;;;;;;10465192;28;20217;-74
2022/06/19 14:32:26;;;;;;;6.05;2.83;;;;;;;;;;10454476;28;21485;-74
2022/06/19 14:37:31;;;;;;;9.35;3.65;;;;;;;;;;10456387;28;21039;-75
2022/06/19 14:42:49;;;;;;;6.57;3.60;;;;;;;;;;10461486;28;20186;-74
2022/06/19 14:47:58;;;;;;;7.63;3.40;;;;;;;;;;10461893;28;20811;-74
2022/06/19 14:53:22;;;;;;;6.07;3.08;;;;;;;;;;10459649;28;20182;-74
2022/06/19 14:58:27;;;;;;;8.45;3.45;;;;;;;;;;10460268;28;20251;-75
2022/06/19 15:03:37;;;;;;;8.50;3.20;;;;;;;;;;10462552;28;21817;-74
2022/06/19 15:08:41;;;;;;;9.18;3.83;;;;;;;;;;10450830;28;20301;-74
2022/06/19 15:13:45;;;;;;;8.40;3.45;;;;;;;;;;10463408;28;20190;-74
2022/06/19 15:18:51;;;;;;;7.53;3.00;;;;;;;;;;10463250;28;20234;-74
2022/06/19 15:23:53;;;;;;;6.85;3.58;;;;;;;;;;10460561;28;20209;-74
2022/06/19 15:28:54;;;;;;;7.68;3.45;;;;;;;;;;10464400;28;20244;-74
2022/06/19 15:33:57;;;;;;;4.20;3.08;;;;;;;;;;10461993;28;20217;-75
2022/06/19 15:39:13;;;;;;;7.32;3.45;;;;;;;;;;10449045;28;20260;-74
2022/06/19 15:44:17;;;;;;;7.00;3.50;;;;;;;;;;10459462;28;20247;-74
2022/06/19 15:49:19;;;;;;;7.90;3.20;;;;;;;;;;10462072;28;20823;-74
2022/06/19 15:54:20;;;;;;;9.07;3.13;;;;;;;;;;10466041;28;20239;-74
2022/06/19 15:59:25;;;;;;;3.15;2.63;;;;;;;;;;10465755;28;20252;-74
2022/06/19 16:04:33;;;;;;;3.03;2.55;;;;;;;;;;10469072;28;21262;-74
2022/06/19 16:09:45;;;;;;;7.57;2.90;;;;;;;;;;10457357;28;20221;-74
2022/06/19 16:14:46;;;;;;;4.50;2.60;;;;;;;;;;10462697;28;20186;-74
2022/06/19 16:19:47;;;;;;;3.95;2.75;;;;;;;;;;10468079;28;20289;-74
2022/06/19 16:25:00;;;;;;;3.92;2.55;;;;;;;;;;10467497;28;20193;-75
2022/06/19 16:30:03;;;;;;;4.65;2.50;;;;;;;;;;10469888;28;20283;-74
2022/06/19 16:45:55;;;;;;;6.15;2.97;;;;;;;;;;10463767;28;21165;-75
2022/06/19 16:50:59;;;;;;;5.07;2.53;;;;;;;;;;10467328;28;20251;-74
2022/06/19 16:56:00;;;;;;;9.02;2.78;;;;;;;;;;10466301;28;20252;-74
2022/06/19 17:01:03;;;;;;;3.00;2.47;;;;;;;;;;10467457;28;20218;-74
2022/06/19 17:06:10;;;;;;;7.63;2.80;;;;;;;;;;10465045;28;20206;-74
2022/06/19 17:11:19;;;;;;;7.47;2.08;;;;;;;;;;10460999;28;21206;-74
2022/06/19 17:16:20;;;;;;;4.55;1.73;;;;;;;;;;10455745;28;20733;-74
2022/06/19 17:21:42;;;;;;;5.15;2.03;;;;;;;;;;10493996;28;20252;-74
2022/06/19 17:26:44;;;;;;;3.15;1.65;;;;;;;;;;10466919;28;20230;-74
2022/06/19 17:31:47;;;;;;;4.22;1.50;;;;;;;;;;10484153;28;20360;-75
2022/06/19 17:36:48;;;;;;;2.47;1.60;;;;;;;;;;10464803;28;20205;-74
2022/06/19 17:41:49;;;;;;;3.30;1.27;;;;;;;;;;10465187;28;20178;-74
2022/06/19 17:46:55;;;;;;;3.47;1.58;;;;;;;;;;10463078;28;20267;-74
2022/06/19 17:52:15;;;;;;;3.17;1.60;;;;;;;;;;10460852;28;20182;-74
2022/06/19 17:57:31;;;;;;;2.80;1.58;;;;;;;;;;10462224;28;20293;-74
2022/06/19 18:02:32;;;;;;;2.42;1.50;;;;;;;;;;10464793;28;20212;-74
2022/06/19 18:07:35;;;;;;;4.85;1.88;;;;;;;;;;10462109;28;20221;-74
2022/06/19 18:12:39;;;;;;;5.78;1.42;;;;;;;;;;10458056;28;20198;-74
2022/06/19 18:23:00;;;;;;;5.43;1.48;;;;;;;;;;10479344;28;20217;-74
2022/06/19 18:28:02;;;;;;;5.78;1.52;;;;;;;;;;10461648;28;20513;-74
2022/06/19 18:33:03;;;;;;;6.20;1.80;;;;;;;;;;10458426;28;20665;-74
2022/06/19 18:38:05;;;;;;;9.38;1.88;;;;;;;;;;10466404;28;20217;-73
2022/06/19 18:43:06;;;;;;;5.47;1.42;;;;;;;;;;10462688;28;20193;-74
2022/06/19 18:48:08;;;;;;;4.32;1.65;;;;;;;;;;10457940;28;20295;-74
2022/06/19 18:53:13;;;;;;;5.05;1.55;;;;;;;;;;10447595;28;20183;-74
2022/06/19 18:58:16;;;;;;;4.40;1.52;;;;;;;;;;10462735;28;20201;-75
2022/06/19 19:03:17;;;;;;;4.75;1.83;;;;;;;;;;10451182;28;20221;-73
2022/06/19 19:08:21;;;;;;;6.88;1.73;;;;;;;;;;10456982;28;20266;-73
2022/06/19 19:13:30;;;;;;;6.25;1.83;;;;;;;;;;10463696;28;20297;-72
2022/06/19 19:18:31;;;;;;;5.97;1.88;;;;;;;;;;10462395;28;20202;-72
2022/06/19 19:23:32;;;;;;;3.75;1.52;;;;;;;;;;10455330;28;20650;-73
2022/06/19 19:28:37;;;;;;;4.03;1.90;;;;;;;;;;10453415;28;20226;-74
2022/06/19 19:33:40;;;;;;;6.22;1.95;;;;;;;;;;10448038;28;20301;-74
2022/06/19 19:38:41;;;;;;;11.02;1.90;;;;;;;;;;10454271;28;20766;-75
2022/06/19 19:43:42;;;;;;;6.63;1.80;;;;;;;;;;10444258;28;20220;-74
2022/06/19 19:48:43;;;;;;;7.18;1.90;;;;;;;;;;10459034;28;20210;-75
2022/06/19 19:53:44;;;;;;;4.60;1.60;;;;;;;;;;10452460;28;20182;-74
2022/06/19 19:58:46;;;;;;;3.22;1.50;;;;;;;;;;10449383;28;20213;-74
2022/06/19 20:03:48;;;;;;;5.75;1.40;;;;;;;;;;10449325;28;20226;-74
2022/06/19 20:14:10;;;;;;;5.10;1.77;;;;;;;;;;10453937;28;20212;-73
2022/06/19 20:19:11;;;;;;;6.93;1.73;;;;;;;;;;10453874;28;20202;-74
2022/06/19 20:24:22;;;;;;;4.38;1.50;;;;;;;;;;10456054;28;20181;-73
2022/06/19 20:29:48;;;;;;;7.28;1.77;;;;;;;;;;10456482;28;20329;-73
2022/06/19 20:34:49;;;;;;;6.28;2.33;;;;;;;;;;10457127;28;20209;-73
2022/06/19 20:39:50;;;;;;;10.68;2.05;;;;;;;;;;10464362;28;20205;-74
2022/06/19 20:44:54;;;;;;;5.97;1.80;;;;;;;;;;10451701;28;20221;-71
2022/06/19 20:49:58;;;;;;;5.97;1.80;;;;;;;;;;10455211;28;20266;-72
2022/06/19 20:55:01;;;;;;;3.83;1.50;;;;;;;;;;10465348;28;20528;-72
2022/06/19 21:00:02;;;;;;;8.52;2.00;;;;;;;;;;10467819;28;20232;-72
2022/06/19 21:05:05;;;;;;;7.55;1.65;;;;;;;;;;10468874;28;20288;-72
2022/06/19 21:10:20;;;;;;;3.42;1.40;;;;;;;;;;10467102;28;20230;-72
2022/06/19 21:15:22;;;;;;;4.05;1.40;;;;;;;;;;10465301;28;20177;-72
2022/06/19 21:20:23;;;;;;;5.20;1.65;;;;;;;;;;10457249;28;20181;-72
2022/06/19 21:25:32;;;;;;;4.63;1.45;;;;;;;;;;10466800;28;20255;-72
2022/06/19 21:30:33;;;;;;;3.47;1.65;;;;;;;;;;10466650;28;20225;-72
2022/06/19 21:35:34;;;;;;;6.05;1.27;;;;;;;;;;10466127;28;20595;-72
2022/06/19 21:40:36;;;;;;;6.20;1.75;;;;;;;;;;10477438;28;20189;-72
2022/06/19 21:45:37;;;;;;;5.63;1.25;;;;;;;;;;10475290;28;20225;-72
2022/06/19 21:50:39;;;;;;;4.18;1.52;;;;;;;;;;10468026;28;22053;-72
2022/06/19 21:55:41;;;;;;;5.22;1.30;;;;;;;;;;10472163;28;20313;-72
2022/06/19 22:00:43;;;;;;;8.60;1.33;;;;;;;;;;10473484;28;20210;-72
2022/06/19 22:05:44;;;;;;;3.83;1.40;;;;;;;;;;10465834;28;20229;-72
2022/06/19 22:16:11;;;;;;;5.00;1.33;;;;;;;;;;10469368;28;20194;-72
2022/06/19 22:21:13;;;;;;;6.25;1.60;;;;;;;;;;10467742;28;20170;-73
2022/06/19 22:26:19;;;;;;;4.35;1.80;;;;;;;;;;10468733;28;20248;-72
2022/06/19 22:31:21;;;;;;;4.35;1.73;;;;;;;;;;10469580;28;20266;-73
2022/06/19 22:36:23;;;;;;;3.92;1.70;;;;;;;;;;10470112;28;20263;-72
2022/06/19 22:41:27;;;;;;;3.40;1.50;;;;;;;;;;10470945;28;20198;-72
2022/06/19 22:46:28;;;;;;;3.15;1.58;;;;;;;;;;10473559;28;20202;-73
2022/06/19 22:51:29;;;;;;;4.28;1.48;;;;;;;;;;10462668;28;20174;-73
2022/06/19 22:56:30;;;;;;;9.10;1.90;;;;;;;;;;10464882;28;20305;-74
2022/06/19 23:01:41;;;;;;;7.25;2.17;;;;;;;;;;10468158;28;20659;-73
2022/06/19 23:06:42;;;;;;;4.95;1.63;;;;;;;;;;10470917;28;20220;-74
2022/06/19 23:11:44;;;;;;;8.10;2.25;;;;;;;;;;10470709;28;20190;-74
2022/06/19 23:16:51;;;;;;;7.72;2.13;;;;;;;;;;10471425;28;20365;-73
2022/06/19 23:21:54;;;;;;;8.80;2.25;;;;;;;;;;10467327;28;20190;-74
2022/06/19 23:26:56;;;;;;;6.40;2.20;;;;;;;;;;10468819;28;20777;-73
2022/06/19 23:31:57;;;;;;;4.35;2.65;;;;;;;;;;10449931;28;20253;-73
2022/06/19 23:36:58;;;;;;;4.93;2.58;;;;;;;;;;10468266;28;20624;-74
2022/06/19 23:42:02;;;;;;;5.47;2.55;;;;;;;;;;10467794;28;20194;-73
2022/06/19 23:47:04;;;;;;;7.40;3.22;;;;;;;;;;10461886;28;20513;-76
2022/06/19 23:52:09;;;;;;;7.22;3.20;;;;;;;;;;10461822;28;20190;-75
2022/06/19 23:57:10;;;;;;;9.32;4.03;;;;;;;;;;10457341;28;20210;-73
